Time;durP1;ratioP1;P1;durP2;ratioP2;P2;SDS_P1;SDS_P2;PMS_P1;PMS_P2;Temp;Humidity;BMP_temperature;BMP_pressure;BME280_temperature;BME280_humidity;BME280_pressure;Samples;Min_cycle;Max_cycle;Signal;HPM_P1;HPM_P2
2023/12/02 00:01:34;;;;;;;;;;;;;;;6.89;75.15;98239.75;4423634;32;34225;-77
2023/12/02 00:04:02;;;;;;;;;;;;;;;6.89;74.71;98247.47;4422530;32;35029;-77
2023/12/02 00:06:29;;;;;;;;;;;;;;;7.11;74.38;98245.63;4411694;32;34163;-74
2023/12/02 00:08:57;;;;;;;;;;;;;;;6.99;74.53;98250.34;4411031;32;34076;-76
2023/12/02 00:11:24;;;;;;;;;;;;;;;7.05;74.74;98241.16;4413570;32;33859;-76
2023/12/02 00:13:51;;;;;;;;;;;;;;;7.13;74.44;98225.94;4422714;32;34640;-76
2023/12/02 00:16:21;;;;;;;;;;;;;;;7.23;74.33;98233.16;4418469;32;34946;-76
2023/12/02 00:18:49;;;;;;;;;;;;;;;7.23;74.39;98233.16;4417263;32;33954;-76
2023/12/02 00:21:17;;;;;;;;;;;;;;;6.88;75.43;98243.13;4415077;32;34672;-76
2023/12/02 00:23:44;;;;;;;;;;;;;;;6.95;75.12;98243.34;4413445;32;33990;-76
2023/12/02 00:26:11;;;;;;;;;;;;;;;7.00;75.08;98252.97;4408622;32;34328;-76
2023/12/02 00:28:39;;;;;;;;;;;;;;;7.00;74.87;98242.69;4421066;32;34228;-76
2023/12/02 00:31:07;;;;;;;;;;;;;;;7.08;74.79;98235.22;4417808;32;34147;-77
2023/12/02 00:33:34;;;;;;;;;;;;;;;6.81;75.96;98245.44;4410480;32;34201;-75
2023/12/02 00:36:02;;;;;;;;;;;;;;;6.93;75.93;98234.69;4414677;32;34833;-76
2023/12/02 00:38:29;;;;;;;;;;;;;;;6.98;74.91;98230.59;4398017;32;32826;-77
2023/12/02 00:40:57;;;;;;;;;;;;;;;6.98;75.56;98220.28;4419583;32;33810;-76
2023/12/02 00:43:24;;;;;;;;;;;;;;;7.12;74.72;98226.75;4412033;32;34861;-77
2023/12/02 00:45:52;;;;;;;;;;;;;;;7.09;74.64;98236.97;4420016;32;35107;-77
2023/12/02 00:48:19;;;;;;;;;;;;;;;7.13;75.10;98235.34;4419678;32;34071;-76
2023/12/02 00:50:47;;;;;;;;;;;;;;;7.08;74.73;98235.22;4403964;32;33924;-77
2023/12/02 00:53:14;;;;;;;;;;;;;;;7.00;75.02;98221.22;4415472;32;33779;-76
2023/12/02 00:55:41;;;;;;;;;;;;;;;7.02;74.78;98229.88;4417526;32;34901;-76
2023/12/02 00:58:08;;;;;;;;;;;;;;;6.96;74.91;98233.09;4412992;32;33095;-76
2023/12/02 01:00:36;;;;;;;;;;;;;;;6.91;75.47;98234.63;4420550;32;34789;-75
2023/12/02 01:03:03;;;;;;;;;;;;;;;6.85;75.93;98243.03;4398573;32;33748;-77
2023/12/02 01:05:30;;;;;;;;;;;;;;;7.01;75.31;98239.31;4399864;32;34526;-77
2023/12/02 01:07:58;;;;;;;;;;;;;;;7.24;74.54;98227.19;4411586;32;33347;-77
2023/12/02 01:10:25;;;;;;;;;;;;;;;7.31;74.40;98217.06;4422119;32;34770;-76
2023/12/02 01:12:52;;;;;;;;;;;;;;;7.39;74.00;98220.75;4397892;32;34249;-76
2023/12/02 01:15:20;;;;;;;;;;;;;;;7.35;74.09;98224.06;4416445;32;33916;-76
2023/12/02 01:17:47;;;;;;;;;;;;;;;7.10;75.05;98223.25;4418104;32;32862;-76
2023/12/02 01:20:15;;;;;;;;;;;;;;;7.39;74.20;98223.34;4411046;32;34767;-76
2023/12/02 01:22:42;;;;;;;;;;;;;;;7.28;74.57;98212.69;4411464;32;34685;-76
2023/12/02 01:25:10;;;;;;;;;;;;;;;7.43;74.15;98205.44;4421261;32;33916;-77
2023/12/02 01:27:37;;;;;;;;;;;;;;;7.45;74.14;98215.81;4422940;32;33095;-77
2023/12/02 01:30:04;;;;;;;;;;;;;;;7.32;74.40;98223.97;4408942;32;34198;-76
2023/12/02 01:32:32;;;;;;;;;;;;;;;7.26;74.67;98215.22;4422376;32;33921;-76
2023/12/02 01:34:59;;;;;;;;;;;;;;;7.39;74.44;98210.47;4419893;32;35027;-76
2023/12/02 01:37:26;;;;;;;;;;;;;;;7.43;73.86;98208.00;4422697;32;33735;-77
2023/12/02 01:39:53;;;;;;;;;;;;;;;7.43;74.03;98199.41;4413064;32;34103;-76
2023/12/02 01:42:21;;;;;;;;;;;;;;;7.42;74.00;98195.97;4422959;32;34669;-76
2023/12/02 01:44:48;;;;;;;;;;;;;;;7.40;74.12;98207.94;4417985;32;33587;-77
2023/12/02 01:47:15;;;;;;;;;;;;;;;7.37;74.19;98204.38;4413403;32;34135;-77
2023/12/02 01:49:43;;;;;;;;;;;;;;;7.41;74.18;98206.22;4417364;32;34001;-76
2023/12/02 01:52:10;;;;;;;;;;;;;;;7.51;73.83;98204.81;4422334;32;33940;-77
2023/12/02 01:54:38;;;;;;;;;;;;;;;7.56;73.67;98198.97;4422459;32;34455;-77
2023/12/02 01:57:05;;;;;;;;;;;;;;;7.50;73.92;98213.38;4413238;32;33128;-77
2023/12/02 01:59:33;;;;;;;;;;;;;;;7.35;74.28;98204.31;4422680;32;34062;-76
2023/12/02 02:02:01;;;;;;;;;;;;;;;7.42;74.39;98190.81;4421974;32;34816;-76
2023/12/02 02:04:28;;;;;;;;;;;;;;;7.36;74.40;98176.88;4410670;32;34328;-76
2023/12/02 02:06:56;;;;;;;;;;;;;;;7.25;75.08;98187.72;4416452;32;33146;-76
2023/12/02 02:09:23;;;;;;;;;;;;;;;7.17;74.80;98189.19;4410578;32;33763;-77
2023/12/02 02:11:50;;;;;;;;;;;;;;;7.25;74.72;98166.25;4421834;32;34259;-77
2023/12/02 02:14:18;;;;;;;;;;;;;;;7.28;74.89;98151.75;4419700;32;34401;-75
2023/12/02 02:16:45;;;;;;;;;;;;;;;7.10;75.37;98151.16;4412401;32;33086;-76
2023/12/02 02:19:12;;;;;;;;;;;;;;;7.21;75.06;98152.38;4406798;32;33945;-76
2023/12/02 02:21:40;;;;;;;;;;;;;;;7.35;74.81;98146.78;4400820;32;32164;-76
2023/12/02 02:24:07;;;;;;;;;;;;;;;7.37;74.39;98161.47;4409804;32;34559;-76
2023/12/02 02:26:34;;;;;;;;;;;;;;;7.33;74.78;98174.22;4418842;32;33498;-76
2023/12/02 02:29:02;;;;;;;;;;;;;;;7.20;75.24;98155.78;4415676;32;33595;-76
2023/12/02 02:31:29;;;;;;;;;;;;;;;7.39;74.22;98153.78;4413011;32;34723;-77
2023/12/02 02:33:56;;;;;;;;;;;;;;;7.43;74.56;98155.63;4416738;32;34638;-77
2023/12/02 02:36:24;;;;;;;;;;;;;;;7.46;74.51;98153.16;4419341;32;33387;-77
2023/12/02 02:38:51;;;;;;;;;;;;;;;7.46;74.23;98155.72;4413853;32;34127;-77
2023/12/02 02:41:19;;;;;;;;;;;;;;;7.66;73.89;98144.31;4420555;32;34196;-76
2023/12/02 02:43:46;;;;;;;;;;;;;;;7.62;73.83;98145.03;4407981;32;34847;-77
2023/12/02 02:46:13;;;;;;;;;;;;;;;7.62;73.79;98163.09;4419806;32;33114;-77
2023/12/02 02:48:41;;;;;;;;;;;;;;;7.60;73.72;98149.28;4409792;32;33922;-77
2023/12/02 02:51:08;;;;;;;;;;;;;;;7.43;74.53;98146.19;4419668;32;33807;-77
2023/12/02 02:53:36;;;;;;;;;;;;;;;7.48;74.26;98149.78;4421850;32;33730;-76
2023/12/02 02:56:04;;;;;;;;;;;;;;;7.65;73.54;98157.16;4419980;32;33846;-77
2023/12/02 02:58:34;;;;;;;;;;;;;;;7.51;73.96;98143.84;4396182;32;32477;-76
2023/12/02 03:01:01;;;;;;;;;;;;;;;7.46;74.03;98148.87;4421441;32;34622;-76
2023/12/02 03:03:28;;;;;;;;;;;;;;;7.57;73.67;98151.78;4421651;32;34993;-76
2023/12/02 03:05:56;;;;;;;;;;;;;;;7.50;73.99;98142.13;4395341;32;32643;-77
2023/12/02 03:08:23;;;;;;;;;;;;;;;7.24;74.06;98134.47;4411806;32;34540;-77
2023/12/02 03:10:50;;;;;;;;;;;;;;;7.49;74.10;98130.03;4412063;32;34866;-76
2023/12/02 03:13:18;;;;;;;;;;;;;;;7.43;74.54;98127.28;4414967;32;33851;-76
2023/12/02 03:15:45;;;;;;;;;;;;;;;7.55;74.12;98137.97;4420614;32;34311;-76
2023/12/02 03:18:13;;;;;;;;;;;;;;;7.59;74.04;98134.66;4415511;32;34948;-76
2023/12/02 03:20:40;;;;;;;;;;;;;;;7.63;73.78;98138.19;4419258;32;33976;-77
2023/12/02 03:23:07;;;;;;;;;;;;;;;7.75;73.61;98138.56;4412030;32;34783;-76
2023/12/02 03:25:35;;;;;;;;;;;;;;;7.85;73.01;98139.69;4411776;32;33918;-76
2023/12/02 03:28:02;;;;;;;;;;;;;;;7.77;73.02;98125.72;4412726;32;34929;-76
2023/12/02 03:30:30;;;;;;;;;;;;;;;7.58;73.96;98144.91;4422967;32;33941;-77
2023/12/02 03:32:58;;;;;;;;;;;;;;;7.60;73.57;98154.44;4423662;32;35277;-77
2023/12/02 03:35:26;;;;;;;;;;;;;;;7.68;73.53;98147.78;4423250;32;33314;-76
2023/12/02 03:37:53;;;;;;;;;;;;;;;7.55;73.96;98134.50;4423615;32;33571;-76
2023/12/02 03:40:20;;;;;;;;;;;;;;;7.77;73.26;98128.31;4420644;32;34981;-76
2023/12/02 03:42:47;;;;;;;;;;;;;;;7.43;74.17;98124.72;4417640;32;33842;-76
2023/12/02 03:45:15;;;;;;;;;;;;;;;7.50;73.77;98113.78;4421778;32;33933;-76
2023/12/02 03:47:43;;;;;;;;;;;;;;;7.57;74.11;98101.94;4419507;32;35380;-77
2023/12/02 03:50:10;;;;;;;;;;;;;;;7.42;74.29;98128.13;4413653;32;34115;-77
2023/12/02 03:52:39;;;;;;;;;;;;;;;7.18;75.17;98103.34;4413198;32;33828;-76
2023/12/02 03:55:07;;;;;;;;;;;;;;;7.21;74.99;98112.91;4415881;32;33425;-76
2023/12/02 03:57:34;;;;;;;;;;;;;;;7.25;74.98;98100.16;4414997;32;34195;-76
2023/12/02 04:00:10;;;;;;;;;;;;;;;7.38;74.46;98105.66;4411185;32;34315;-76
2023/12/02 04:02:39;;;;;;;;;;;;;;;7.50;74.09;98105.19;4418404;32;35247;-77
2023/12/02 04:05:06;;;;;;;;;;;;;;;7.45;74.47;98117.91;4415636;32;33520;-77
2023/12/02 04:07:34;;;;;;;;;;;;;;;7.66;73.49;98110.81;4414811;32;34054;-76
2023/12/02 04:10:03;;;;;;;;;;;;;;;7.54;73.94;98118.19;4409935;32;34643;-77
2023/12/02 04:12:31;;;;;;;;;;;;;;;7.53;74.33;98116.41;4422752;32;34611;-77
2023/12/02 04:14:58;;;;;;;;;;;;;;;7.59;73.77;98111.47;4400233;32;31669;-76
2023/12/02 04:17:29;;;;;;;;;;;;;;;7.58;74.13;98119.16;4418107;32;33913;-76
2023/12/02 04:19:57;;;;;;;;;;;;;;;7.47;74.52;98121.41;4404383;32;32405;-76
2023/12/02 04:22:24;;;;;;;;;;;;;;;7.66;73.65;98118.53;4417532;32;33854;-76
2023/12/02 04:24:52;;;;;;;;;;;;;;;7.62;74.04;98121.84;4423590;32;33309;-76
2023/12/02 04:27:19;;;;;;;;;;;;;;;7.70;73.66;98113.47;4419713;32;33879;-76
2023/12/02 04:29:47;;;;;;;;;;;;;;;7.74;73.65;98120.47;4422758;32;34271;-76
2023/12/02 04:32:17;;;;;;;;;;;;;;;7.73;73.62;98117.03;4417105;32;34201;-77
2023/12/02 04:34:44;;;;;;;;;;;;;;;7.77;73.51;98110.25;4418458;32;33418;-75
2023/12/02 04:37:12;;;;;;;;;;;;;;;7.74;73.55;98113.59;4411314;32;34138;-76
2023/12/02 04:39:40;;;;;;;;;;;;;;;7.78;73.33;98112.84;4420220;32;32468;-76
2023/12/02 04:42:07;;;;;;;;;;;;;;;7.76;73.21;98108.50;4420901;32;34392;-76
2023/12/02 04:44:35;;;;;;;;;;;;;;;7.61;73.73;98102.09;4408396;32;33050;-76
2023/12/02 04:47:03;;;;;;;;;;;;;;;7.53;73.99;98100.97;4413398;32;34970;-76
2023/12/02 04:49:30;;;;;;;;;;;;;;;7.30;74.97;98097.69;4414918;32;34841;-76
2023/12/02 04:51:57;;;;;;;;;;;;;;;7.44;74.55;98090.41;4418578;32;34090;-76
2023/12/02 04:54:25;;;;;;;;;;;;;;;7.35;74.80;98085.84;4420102;32;34185;-76
2023/12/02 04:56:52;;;;;;;;;;;;;;;7.55;74.29;98095.84;4412233;32;34332;-76
2023/12/02 04:59:19;;;;;;;;;;;;;;;7.43;74.60;98093.81;4416769;32;34272;-76
2023/12/02 05:01:47;;;;;;;;;;;;;;;7.45;74.71;98092.12;4415672;32;34576;-77
2023/12/02 05:04:15;;;;;;;;;;;;;;;7.45;74.86;98081.84;4414763;32;34059;-77
2023/12/02 05:06:42;;;;;;;;;;;;;;;7.41;74.69;98080.87;4417752;32;34764;-77
2023/12/02 05:09:10;;;;;;;;;;;;;;;7.43;75.00;98066.31;4415659;32;34221;-76
2023/12/02 05:11:37;;;;;;;;;;;;;;;7.58;74.69;98068.47;4414166;32;34048;-76
2023/12/02 05:14:04;;;;;;;;;;;;;;;7.80;73.74;98075.13;4417472;32;33133;-76
2023/12/02 05:16:32;;;;;;;;;;;;;;;7.71;73.99;98073.97;4411732;32;34087;-76
2023/12/02 05:18:59;;;;;;;;;;;;;;;7.71;73.86;98073.97;4418534;32;33993;-77
2023/12/02 05:21:26;;;;;;;;;;;;;;;7.78;73.69;98075.91;4417342;32;34061;-77
2023/12/02 05:23:54;;;;;;;;;;;;;;;7.44;74.94;98072.37;4422040;32;34116;-77
2023/12/02 05:26:21;;;;;;;;;;;;;;;7.66;74.37;98079.87;4413014;32;34812;-76
2023/12/02 05:28:48;;;;;;;;;;;;;;;7.75;73.94;98078.41;4418455;32;34068;-76
2023/12/02 05:31:19;;;;;;;;;;;;;;;7.76;73.95;98072.41;4410015;32;34242;-76
2023/12/02 05:33:46;;;;;;;;;;;;;;;7.91;73.54;98062.53;4411404;32;33160;-76
2023/12/02 05:36:14;;;;;;;;;;;;;;;7.93;73.46;98068.59;4413884;32;34179;-77
2023/12/02 05:38:41;;;;;;;;;;;;;;;7.82;73.51;98068.31;4421427;32;33949;-76
2023/12/02 05:41:08;;;;;;;;;;;;;;;7.86;73.54;98064.09;4414918;32;34525;-77
2023/12/02 05:43:36;;;;;;;;;;;;;;;7.89;73.37;98064.19;4408188;32;33524;-76
2023/12/02 05:46:03;;;;;;;;;;;;;;;7.78;73.48;98066.47;4412843;32;33855;-76
2023/12/02 05:48:30;;;;;;;;;;;;;;;7.80;73.12;98075.13;4411088;32;34261;-77
2023/12/02 05:51:00;;;;;;;;;;;;;;;7.70;73.51;98083.41;4416049;32;33779;-76
2023/12/02 05:53:27;;;;;;;;;;;;;;;7.88;72.66;98067.63;4416083;32;33199;-76
2023/12/02 05:55:54;;;;;;;;;;;;;;;7.84;73.02;98070.91;4419307;32;33813;-76
2023/12/02 05:58:22;;;;;;;;;;;;;;;7.44;74.22;98073.25;4417390;32;32792;-76
2023/12/02 06:00:50;;;;;;;;;;;;;;;7.54;74.16;98061.50;4401997;32;32276;-77
2023/12/02 06:03:17;;;;;;;;;;;;;;;7.59;74.16;98069.34;4406699;32;33764;-76
2023/12/02 06:05:45;;;;;;;;;;;;;;;7.59;74.21;98053.88;4410018;32;34145;-77
2023/12/02 06:08:12;;;;;;;;;;;;;;;7.60;74.13;98061.66;4411609;32;33986;-77
2023/12/02 06:10:40;;;;;;;;;;;;;;;7.72;73.76;98057.69;4412882;32;33749;-76
2023/12/02 06:13:07;;;;;;;;;;;;;;;7.79;73.49;98081.09;4416535;32;33980;-77
2023/12/02 06:15:34;;;;;;;;;;;;;;;7.91;73.11;98083.16;4415257;32;34021;-76
2023/12/02 06:18:03;;;;;;;;;;;;;;;7.68;73.79;98085.94;4414029;32;34731;-76
2023/12/02 06:20:30;;;;;;;;;;;;;;;7.91;72.98;98098.62;4416071;32;34933;-76
2023/12/02 06:22:57;;;;;;;;;;;;;;;7.95;72.67;98094.41;4413507;32;32944;-76
2023/12/02 06:25:25;;;;;;;;;;;;;;;7.94;72.54;98103.87;4399466;32;33967;-77
2023/12/02 06:27:52;;;;;;;;;;;;;;;8.02;72.36;98107.53;4417440;32;34210;-77
2023/12/02 06:30:19;;;;;;;;;;;;;;;7.92;72.81;98108.13;4396702;32;34973;-75
2023/12/02 06:32:47;;;;;;;;;;;;;;;8.05;72.50;98107.62;4420887;32;34322;-76
2023/12/02 06:35:14;;;;;;;;;;;;;;;8.05;72.74;98112.78;4418822;32;34684;-76
2023/12/02 06:37:41;;;;;;;;;;;;;;;8.24;71.91;98111.56;4417825;32;34749;-77
2023/12/02 06:40:09;;;;;;;;;;;;;;;8.18;71.87;98123.41;4413606;32;34627;-77
2023/12/02 06:42:36;;;;;;;;;;;;;;;8.07;72.33;98126.59;4411053;32;33366;-76
2023/12/02 06:45:04;;;;;;;;;;;;;;;8.11;72.48;98129.22;4414719;32;34110;-77
2023/12/02 06:47:32;;;;;;;;;;;;;;;8.18;72.23;98124.28;4413629;32;33859;-76
2023/12/02 06:49:59;;;;;;;;;;;;;;;8.22;71.81;98114.94;4409021;32;34166;-76
2023/12/02 06:52:26;;;;;;;;;;;;;;;8.36;71.37;98113.56;4414701;32;33370;-76
2023/12/02 06:54:54;;;;;;;;;;;;;;;8.16;72.18;98119.94;4423254;32;32733;-76
2023/12/02 06:57:24;;;;;;;;;;;;;;;8.22;72.19;98109.78;4418593;32;33637;-76
2023/12/02 06:59:51;;;;;;;;;;;;;;;8.12;72.37;98118.09;4422222;32;33865;-77
2023/12/02 07:02:19;;;;;;;;;;;;;;;8.33;71.79;98107.50;4416516;32;33529;-77
2023/12/02 07:04:46;;;;;;;;;;;;;;;8.40;71.65;98110.28;4420014;32;33943;-76
2023/12/02 07:07:14;;;;;;;;;;;;;;;8.36;71.49;98108.41;4415247;32;33867;-77
2023/12/02 07:09:41;;;;;;;;;;;;;;;8.33;71.95;98133.28;4418894;32;33658;-77
2023/12/02 07:12:08;;;;;;;;;;;;;;;8.29;71.86;98114.28;4421452;32;33209;-76
2023/12/02 07:14:36;;;;;;;;;;;;;;;8.35;71.81;98119.59;4411528;32;34542;-76
2023/12/02 07:17:04;;;;;;;;;;;;;;;8.29;71.87;98124.59;4418481;32;33750;-77
2023/12/02 07:19:31;;;;;;;;;;;;;;;8.23;71.89;98127.00;4421727;32;34144;-76
2023/12/02 07:21:59;;;;;;;;;;;;;;;8.35;71.56;98117.00;4423695;32;33216;-76
2023/12/02 07:24:26;;;;;;;;;;;;;;;8.37;71.60;98115.34;4403131;32;32432;-77
2023/12/02 07:26:54;;;;;;;;;;;;;;;8.36;71.42;98105.84;4415593;32;34984;-77
2023/12/02 07:29:21;;;;;;;;;;;;;;;8.36;71.20;98115.28;4403818;32;34229;-77
2023/12/02 07:32:09;;;;;;;;;;;;;;;8.32;71.74;98111.75;4416651;32;33771;-76
2023/12/02 07:34:36;;;;;;;;;;;;;;;8.44;71.17;98098.31;4401237;32;33494;-77
2023/12/02 07:37:03;;;;;;;;;;;;;;;8.44;71.32;98098.31;4413365;32;33977;-75
2023/12/02 07:39:31;;;;;;;;;;;;;;;8.41;71.52;98112.03;4417691;32;34840;-77
2023/12/02 07:41:58;;;;;;;;;;;;;;;8.53;71.28;98089.97;4414030;32;33114;-76
2023/12/02 07:44:25;;;;;;;;;;;;;;;8.36;71.83;98100.69;4414953;32;34108;-76
2023/12/02 07:46:53;;;;;;;;;;;;;;;8.46;71.65;98084.66;4418761;32;34666;-77
2023/12/02 07:49:20;;;;;;;;;;;;;;;8.36;71.63;98086.91;4417703;32;34270;-76
2023/12/02 07:51:47;;;;;;;;;;;;;;;8.51;71.18;98086.47;4416412;32;32813;-76
2023/12/02 07:54:15;;;;;;;;;;;;;;;8.57;71.17;98078.88;4410144;32;34925;-77
2023/12/02 07:56:42;;;;;;;;;;;;;;;8.49;71.42;98098.47;4420462;32;34207;-76
2023/12/02 07:59:10;;;;;;;;;;;;;;;8.51;71.26;98074.44;4415605;32;33882;-76
2023/12/02 08:01:37;;;;;;;;;;;;;;;8.35;71.79;98095.50;4417162;32;33720;-76
2023/12/02 08:04:05;;;;;;;;;;;;;;;8.40;71.43;98088.72;4416601;32;33998;-77
2023/12/02 08:06:32;;;;;;;;;;;;;;;8.46;71.29;98094.97;4410267;32;34155;-77
2023/12/02 08:09:00;;;;;;;;;;;;;;;8.39;71.66;98093.03;4417958;32;34494;-77
2023/12/02 08:11:28;;;;;;;;;;;;;;;8.46;71.22;98089.81;4418415;32;33618;-77
2023/12/02 08:13:55;;;;;;;;;;;;;;;8.42;71.29;98095.75;4416413;32;34222;-77
2023/12/02 08:16:22;;;;;;;;;;;;;;;8.37;71.76;98099.84;4416079;32;34261;-76
2023/12/02 08:18:50;;;;;;;;;;;;;;;8.35;71.80;98105.81;4415657;32;34043;-77
2023/12/02 08:21:17;;;;;;;;;;;;;;;8.23;72.08;98107.25;4417156;32;33922;-77
2023/12/02 08:23:44;;;;;;;;;;;;;;;8.33;72.20;98115.22;4415973;32;34920;-77
2023/12/02 08:26:12;;;;;;;;;;;;;;;8.39;72.15;98126.56;4411989;32;34858;-77
2023/12/02 08:28:39;;;;;;;;;;;;;;;8.44;72.05;98117.28;4420531;32;32465;-76
2023/12/02 08:31:06;;;;;;;;;;;;;;;8.51;71.49;98128.63;4419018;32;32850;-77
2023/12/02 08:33:34;;;;;;;;;;;;;;;8.71;71.49;98141.16;4409300;32;33914;-76
2023/12/02 08:36:01;;;;;;;;;;;;;;;8.81;71.59;98148.34;4420100;32;33984;-77
2023/12/02 08:38:28;;;;;;;;;;;;;;;8.51;72.68;98161.31;4416668;32;34206;-77
2023/12/02 08:40:56;;;;;;;;;;;;;;;8.82;71.87;98156.09;4416235;32;31813;-77
2023/12/02 08:43:23;;;;;;;;;;;;;;;8.56;73.19;98141.66;4421433;32;34443;-79
2023/12/02 08:45:50;;;;;;;;;;;;;;;8.79;72.70;98132.78;4411788;32;33974;-77
2023/12/02 08:48:19;;;;;;;;;;;;;;;8.92;72.37;98146.00;4418476;32;33698;-77
2023/12/02 08:50:46;;;;;;;;;;;;;;;9.04;72.16;98136.00;4398635;32;33453;-77
2023/12/02 08:53:13;;;;;;;;;;;;;;;9.01;71.95;98147.09;4409195;32;32176;-77
2023/12/02 08:55:42;;;;;;;;;;;;;;;8.83;71.93;98141.50;4419970;32;35062;-77
2023/12/02 08:58:09;;;;;;;;;;;;;;;8.93;71.66;98132.28;4420552;32;34372;-78
2023/12/02 09:00:36;;;;;;;;;;;;;;;8.85;71.29;98132.94;4421067;32;34296;-77
2023/12/02 09:03:04;;;;;;;;;;;;;;;8.92;70.93;98128.78;4420752;32;34788;-78
2023/12/02 09:05:31;;;;;;;;;;;;;;;8.70;71.42;98139.44;4411604;32;34013;-78
2023/12/02 09:08:01;;;;;;;;;;;;;;;8.81;70.79;98133.72;4404782;32;32624;-77
2023/12/02 09:10:28;;;;;;;;;;;;;;;8.75;70.89;98130.09;4419139;32;33419;-77
2023/12/02 09:12:56;;;;;;;;;;;;;;;8.61;71.33;98135.75;4411813;32;34842;-77
2023/12/02 09:15:23;;;;;;;;;;;;;;;8.66;71.43;98131.59;4418350;32;33425;-77
2023/12/02 09:17:50;;;;;;;;;;;;;;;8.84;70.89;98131.19;4419220;32;34035;-77
2023/12/02 09:20:45;;;;;;;;;;;;;;;8.92;71.08;98140.84;4398006;32;33282;-77
2023/12/02 09:23:13;;;;;;;;;;;;;;;8.94;70.68;98132.28;4418284;32;33918;-77
2023/12/02 09:25:41;;;;;;;;;;;;;;;8.91;71.05;98123.63;4420331;32;34326;-77
2023/12/02 09:28:15;;;;;;;;;;;;;;;9.01;70.94;98130.72;4415186;32;33813;-77
2023/12/02 09:30:48;;;;;;;;;;;;;;;9.09;70.62;98136.94;4404621;32;33434;-77
2023/12/02 09:33:32;;;;;;;;;;;;;;;9.04;70.84;98120.50;4420252;32;34906;-77
2023/12/02 09:36:01;;;;;;;;;;;;;;;9.17;82.65;98127.66;4410838;32;34261;-77
2023/12/02 09:38:28;;;;;;;;;;;;;;;9.34;76.32;98127.19;4416522;32;34860;-77
2023/12/02 09:41:04;;;;;;;;;;;;;;;9.32;74.56;98136.63;4418342;32;33456;-77
2023/12/02 09:43:47;;;;;;;;;;;;;;;9.31;74.16;98145.19;4403466;32;34107;-77
2023/12/02 09:46:35;;;;;;;;;;;;;;;9.38;73.01;98136.75;4418242;32;34057;-77
2023/12/02 09:49:02;;;;;;;;;;;;;;;9.25;72.36;98126.16;4403838;32;35131;-77
2023/12/02 09:51:33;;;;;;;;;;;;;;;9.25;72.74;98136.50;4414202;32;33548;-78
2023/12/02 09:54:19;;;;;;;;;;;;;;;9.40;71.49;98119.56;4420454;32;34763;-77
2023/12/02 09:56:53;;;;;;;;;;;;;;;9.34;71.40;98114.28;4412735;32;33855;-77
2023/12/02 09:59:28;;;;;;;;;;;;;;;9.44;70.53;98100.72;4418211;32;34996;-77
2023/12/02 10:02:00;;;;;;;;;;;;;;;9.35;70.54;98095.34;4417331;32;32926;-77
2023/12/02 10:04:31;;;;;;;;;;;;;;;9.36;69.67;98086.75;4400552;32;33771;-77
2023/12/02 10:07:09;;;;;;;;;;;;;;;9.39;69.64;98081.66;4415229;32;33273;-77
2023/12/02 10:09:53;;;;;;;;;;;;;;;9.30;70.07;98091.78;4406847;32;34069;-77
2023/12/02 10:12:30;;;;;;;;;;;;;;;9.21;70.69;98083.00;4417169;32;34053;-78
2023/12/02 10:15:03;;;;;;;;;;;;;;;9.22;70.54;98084.72;4405617;32;34411;-78
2023/12/02 10:17:31;;;;;;;;;;;;;;;9.20;70.21;98076.06;4420849;32;34703;-77
2023/12/02 10:20:00;;;;;;;;;;;;;;;9.16;70.22;98076.00;4401445;32;34314;-77
2023/12/02 10:22:28;;;;;;;;;;;;;;;9.15;70.57;98082.84;4420759;32;33060;-77
2023/12/02 10:25:06;;;;;;;;;;;;;;;9.28;70.45;98085.72;4420529;32;33697;-77
2023/12/02 10:27:35;;;;;;;;;;;;;;;9.11;70.47;98086.19;4421014;32;33749;-77
2023/12/02 10:30:06;;;;;;;;;;;;;;;9.09;70.58;98085.28;4409890;32;33922;-77
2023/12/02 10:32:39;;;;;;;;;;;;;;;9.33;69.99;98076.34;4405537;32;33396;-77
2023/12/02 10:35:13;;;;;;;;;;;;;;;9.20;70.14;98060.56;4406793;32;33091;-77
2023/12/02 10:37:43;;;;;;;;;;;;;;;8.91;71.65;98090.03;4410106;32;34007;-77
2023/12/02 10:40:12;;;;;;;;;;;;;;;9.01;71.28;98069.62;4419874;32;34365;-78
2023/12/02 10:43:03;;;;;;;;;;;;;;;8.77;72.05;98080.25;4416548;32;34182;-77
2023/12/02 10:45:31;;;;;;;;;;;;;;;9.02;71.24;98065.31;4398182;32;34038;-78
2023/12/02 10:47:59;;;;;;;;;;;;;;;9.05;71.28;98031.81;4408505;32;34371;-78
2023/12/02 10:50:26;;;;;;;;;;;;;;;9.08;70.84;98044.81;4415725;32;34733;-78
2023/12/02 10:53:00;;;;;;;;;;;;;;;8.90;71.53;98052.13;4415555;32;32773;-77
2023/12/02 10:55:28;;;;;;;;;;;;;;;9.06;71.50;98015.50;4417872;32;32414;-77
2023/12/02 10:57:56;;;;;;;;;;;;;;;8.86;72.08;98053.78;4399055;32;34251;-78
2023/12/02 11:00:24;;;;;;;;;;;;;;;8.99;71.85;98032.56;4389837;32;32323;-78
2023/12/02 11:02:53;;;;;;;;;;;;;;;9.22;70.42;98034.78;4402808;32;33472;-79
2023/12/02 11:05:21;;;;;;;;;;;;;;;9.12;70.62;98015.62;4402703;32;34257;-78
2023/12/02 11:07:52;;;;;;;;;;;;;;;9.04;71.02;98006.84;4417064;32;34037;-78
2023/12/02 11:10:25;;;;;;;;;;;;;;;9.10;71.19;97995.75;4413689;32;34805;-78
2023/12/02 11:12:52;;;;;;;;;;;;;;;9.07;71.60;97988.81;4394720;32;33517;-77
2023/12/02 11:15:21;;;;;;;;;;;;;;;8.70;72.94;97995.75;4408125;32;34536;-77
2023/12/02 11:17:52;;;;;;;;;;;;;;;8.86;72.99;97999.53;4413687;32;33670;-77
2023/12/02 11:20:28;;;;;;;;;;;;;;;8.85;72.45;97980.59;4414522;32;33809;-78
2023/12/02 11:23:11;;;;;;;;;;;;;;;8.77;72.52;98002.81;4396414;32;31259;-77
2023/12/02 11:25:45;;;;;;;;;;;;;;;8.70;72.84;97975.09;4410517;32;33484;-78
2023/12/02 11:28:36;;;;;;;;;;;;;;;8.71;72.65;97982.03;4407657;32;33984;-78
2023/12/02 11:31:24;;;;;;;;;;;;;;;8.75;72.56;97988.09;4402666;32;33555;-77
2023/12/02 11:33:55;;;;;;;;;;;;;;;8.80;72.69;97986.50;4403359;32;32756;-77
2023/12/02 11:36:27;;;;;;;;;;;;;;;8.74;73.35;97994.13;4411288;32;33807;-77
2023/12/02 11:39:02;;;;;;;;;;;;;;;8.69;73.63;97982.81;4414106;32;34464;-78
2023/12/02 11:41:32;;;;;;;;;;;;;;;8.79;73.80;98008.00;4411898;32;34752;-78
2023/12/02 11:44:05;;;;;;;;;;;;;;;9.06;72.88;98015.50;4416071;32;34153;-77
2023/12/02 11:46:35;;;;;;;;;;;;;;;9.10;72.37;98019.91;4415905;32;33852;-78
2023/12/02 11:49:12;;;;;;;;;;;;;;;8.73;73.85;98037.13;4403897;32;33544;-77
2023/12/02 11:51:40;;;;;;;;;;;;;;;8.77;73.30;98044.13;4416954;32;34192;-78
2023/12/02 11:54:07;;;;;;;;;;;;;;;8.90;73.13;98040.09;4414250;32;33488;-78
2023/12/02 11:56:35;;;;;;;;;;;;;;;9.04;72.39;98022.34;4406259;32;35209;-77
2023/12/02 11:59:09;;;;;;;;;;;;;;;8.89;72.72;98014.25;4396182;32;32663;-78
2023/12/02 12:01:55;;;;;;;;;;;;;;;8.85;73.26;98014.19;4399353;32;32983;-78
2023/12/02 12:04:23;;;;;;;;;;;;;;;8.99;72.39;98004.16;4408014;32;32109;-78
2023/12/02 12:07:09;;;;;;;;;;;;;;;9.01;72.40;98017.97;4416712;32;33834;-77
2023/12/02 12:09:38;;;;;;;;;;;;;;;8.80;73.29;98013.19;4408728;32;34292;-78
2023/12/02 12:12:06;;;;;;;;;;;;;;;8.99;73.11;98006.72;4386315;32;34304;-78
2023/12/02 12:14:33;;;;;;;;;;;;;;;9.03;72.75;98018.87;4416971;32;32763;-78
2023/12/02 12:17:01;;;;;;;;;;;;;;;9.09;72.39;98020.72;4412351;32;34140;-77
2023/12/02 12:19:28;;;;;;;;;;;;;;;8.94;73.01;98031.56;4402430;32;33667;-79
2023/12/02 12:21:55;;;;;;;;;;;;;;;9.05;72.72;98030.09;4402433;32;34433;-78
2023/12/02 12:24:23;;;;;;;;;;;;;;;9.17;72.04;98031.22;4410976;32;32874;-79
2023/12/02 12:26:50;;;;;;;;;;;;;;;9.17;71.72;98016.59;4412251;32;32927;-78
2023/12/02 12:29:19;;;;;;;;;;;;;;;8.95;71.30;98004.06;4408637;32;33760;-78
2023/12/02 12:31:46;;;;;;;;;;;;;;;8.79;72.21;97988.22;4414051;32;35163;-79
2023/12/02 12:34:14;;;;;;;;;;;;;;;8.76;71.49;97984.69;4415635;32;33647;-78
2023/12/02 12:36:43;;;;;;;;;;;;;;;8.75;71.92;97993.25;4409131;32;34048;-78
2023/12/02 12:39:16;;;;;;;;;;;;;;;8.77;71.26;98004.50;4410019;32;34807;-78
2023/12/02 12:41:44;;;;;;;;;;;;;;;8.62;71.56;97985.25;4413385;32;33722;-78
2023/12/02 12:44:11;;;;;;;;;;;;;;;8.69;71.19;97991.41;4396508;32;31968;-78
2023/12/02 12:46:40;;;;;;;;;;;;;;;8.53;71.72;97989.31;4408189;32;33998;-79
2023/12/02 12:49:07;;;;;;;;;;;;;;;8.52;71.43;97979.81;4402250;32;33818;-78
2023/12/02 12:51:35;;;;;;;;;;;;;;;8.65;72.80;97976.69;4405273;32;33891;-79
2023/12/02 12:54:05;;;;;;;;;;;;;;;8.66;71.84;97957.81;4409991;32;33483;-79
2023/12/02 12:56:35;;;;;;;;;;;;;;;8.54;71.47;97973.03;4407174;32;34082;-76
2023/12/02 12:59:03;;;;;;;;;;;;;;;8.34;71.87;97970.78;4416898;32;34774;-82
2023/12/02 13:01:32;;;;;;;;;;;;;;;8.11;72.17;97966.78;4413800;32;34772;-81
2023/12/02 13:04:04;;;;;;;;;;;;;;;8.17;72.27;97977.22;4415194;32;33515;-81
2023/12/02 13:06:31;;;;;;;;;;;;;;;8.07;72.18;98013.13;4418656;32;33483;-82